sensor_id;sensor_type;location;lat;lon;timestamp;P1;durP1;ratioP1;P2;durP2;ratioP2
20421;SDS011;10370;53.102;18.034;2022-09-30T06:58:25;73.57;;;38.58;;
20421;SDS011;10370;53.102;18.034;2022-09-30T07:04:40;73.13;;;39.33;;
20421;SDS011;10370;53.102;18.034;2022-09-30T07:55:44;77.90;;;39.30;;
20421;SDS011;10370;53.102;18.034;2022-09-30T08:01:44;74.88;;;39.50;;
20421;SDS011;10370;53.102;18.034;2022-09-30T08:21:28;80.90;;;42.55;;
20421;SDS011;10370;53.102;18.034;2022-09-30T08:26:52;80.82;;;40.55;;
20421;SDS011;10370;53.102;18.034;2022-09-30T08:58:22;83.60;;;46.33;;
20421;SDS011;10370;53.102;18.034;2022-09-30T09:03:49;74.22;;;40.75;;
20421;SDS011;10370;53.102;18.034;2022-09-30T09:20:57;54.75;;;32.10;;
20421;SDS011;10370;53.102;18.034;2022-09-30T09:26:22;51.97;;;30.63;;
20421;SDS011;10370;53.102;18.034;2022-09-30T09:31:44;48.30;;;28.58;;
20421;SDS011;10370;53.102;18.034;2022-09-30T09:43:25;48.33;;;29.85;;
20421;SDS011;10370;53.102;18.034;2022-09-30T09:54:36;44.08;;;24.25;;
20421;SDS011;10370;53.102;18.034;2022-09-30T10:00:07;42.78;;;25.92;;
20421;SDS011;10370;53.102;18.034;2022-09-30T10:06:01;48.45;;;24.05;;
20421;SDS011;10370;53.102;18.034;2022-09-30T10:11:25;44.15;;;23.83;;
20421;SDS011;10370;53.102;18.034;2022-09-30T10:16:46;49.03;;;22.60;;
20421;SDS011;10370;53.102;18.034;2022-09-30T10:27:29;63.42;;;36.60;;
20421;SDS011;10370;53.102;18.034;2022-09-30T10:32:54;52.00;;;26.42;;
20421;SDS011;10370;53.102;18.034;2022-09-30T10:38:15;34.42;;;20.85;;
20421;SDS011;10370;53.102;18.034;2022-09-30T10:43:38;36.92;;;21.95;;
20421;SDS011;10370;53.102;18.034;2022-09-30T10:54:54;28.02;;;19.17;;
20421;SDS011;10370;53.102;18.034;2022-09-30T11:00:23;35.05;;;20.52;;
20421;SDS011;10370;53.102;18.034;2022-09-30T11:05:45;33.58;;;20.60;;
20421;SDS011;10370;53.102;18.034;2022-09-30T11:27:50;32.53;;;19.20;;
20421;SDS011;10370;53.102;18.034;2022-09-30T11:38:56;25.98;;;16.05;;
20421;SDS011;10370;53.102;18.034;2022-09-30T12:01:21;21.05;;;15.10;;
20421;SDS011;10370;53.102;18.034;2022-09-30T12:07:16;20.00;;;14.98;;
20421;SDS011;10370;53.102;18.034;2022-09-30T12:12:44;23.42;;;16.73;;
20421;SDS011;10370;53.102;18.034;2022-09-30T12:18:13;22.30;;;16.15;;
20421;SDS011;10370;53.102;18.034;2022-09-30T12:23:42;28.63;;;19.58;;
20421;SDS011;10370;53.102;18.034;2022-09-30T12:29:17;33.00;;;19.85;;
20421;SDS011;10370;53.102;18.034;2022-09-30T12:51:42;26.27;;;17.92;;
20421;SDS011;10370;53.102;18.034;2022-09-30T12:57:04;28.55;;;16.20;;
20421;SDS011;10370;53.102;18.034;2022-09-30T13:02:37;24.40;;;13.52;;
20421;SDS011;10370;53.102;18.034;2022-09-30T13:13:26;20.75;;;14.10;;
20421;SDS011;10370;53.102;18.034;2022-09-30T13:18:56;19.80;;;13.55;;
20421;SDS011;10370;53.102;18.034;2022-09-30T13:24:18;18.10;;;12.95;;
20421;SDS011;10370;53.102;18.034;2022-09-30T13:41:15;21.15;;;14.70;;
20421;SDS011;10370;53.102;18.034;2022-09-30T13:46:45;21.10;;;13.88;;
20421;SDS011;10370;53.102;18.034;2022-09-30T13:52:20;21.45;;;12.77;;
20421;SDS011;10370;53.102;18.034;2022-09-30T13:58:00;19.17;;;13.30;;
20421;SDS011;10370;53.102;18.034;2022-09-30T14:09:23;22.90;;;14.60;;
20421;SDS011;10370;53.102;18.034;2022-09-30T14:20:45;24.58;;;15.63;;
20421;SDS011;10370;53.102;18.034;2022-09-30T14:32:24;19.85;;;13.18;;
20421;SDS011;10370;53.102;18.034;2022-09-30T14:37:52;19.90;;;13.00;;
20421;SDS011;10370;53.102;18.034;2022-09-30T14:43:19;15.20;;;11.05;;
20421;SDS011;10370;53.102;18.034;2022-09-30T14:48:43;16.45;;;11.52;;
20421;SDS011;10370;53.102;18.034;2022-09-30T15:05:48;21.17;;;14.15;;
20421;SDS011;10370;53.102;18.034;2022-09-30T15:11:15;25.42;;;15.48;;
20421;SDS011;10370;53.102;18.034;2022-09-30T15:16:48;27.20;;;18.17;;
20421;SDS011;10370;53.102;18.034;2022-09-30T15:22:11;26.17;;;17.58;;
20421;SDS011;10370;53.102;18.034;2022-09-30T15:27:33;25.20;;;17.35;;
20421;SDS011;10370;53.102;18.034;2022-09-30T15:33:00;26.70;;;17.35;;
20421;SDS011;10370;53.102;18.034;2022-09-30T15:38:24;25.98;;;17.40;;
20421;SDS011;10370;53.102;18.034;2022-09-30T15:43:47;29.33;;;18.60;;
20421;SDS011;10370;53.102;18.034;2022-09-30T15:54:59;27.25;;;17.50;;
20421;SDS011;10370;53.102;18.034;2022-09-30T16:00:29;25.42;;;17.23;;
20421;SDS011;10370;53.102;18.034;2022-09-30T16:05:52;31.33;;;19.23;;
20421;SDS011;10370;53.102;18.034;2022-09-30T16:11:24;29.45;;;18.27;;
20421;SDS011;10370;53.102;18.034;2022-09-30T16:16:49;39.78;;;21.35;;
20421;SDS011;10370;53.102;18.034;2022-09-30T16:28:11;34.40;;;19.92;;
20421;SDS011;10370;53.102;18.034;2022-09-30T16:33:33;35.42;;;21.98;;
20421;SDS011;10370;53.102;18.034;2022-09-30T16:38:57;46.17;;;22.85;;
20421;SDS011;10370;53.102;18.034;2022-09-30T16:44:18;43.50;;;23.98;;
20421;SDS011;10370;53.102;18.034;2022-09-30T16:49:40;52.65;;;28.85;;
20421;SDS011;10370;53.102;18.034;2022-09-30T16:55:04;62.03;;;30.02;;
20421;SDS011;10370;53.102;18.034;2022-09-30T17:00:25;71.35;;;36.75;;
20421;SDS011;10370;53.102;18.034;2022-09-30T17:05:48;82.45;;;45.35;;
20421;SDS011;10370;53.102;18.034;2022-09-30T17:11:12;63.53;;;36.03;;
20421;SDS011;10370;53.102;18.034;2022-09-30T17:16:36;73.95;;;37.53;;
20421;SDS011;10370;53.102;18.034;2022-09-30T17:21:57;80.45;;;41.30;;
20421;SDS011;10370;53.102;18.034;2022-09-30T17:27:18;74.95;;;43.13;;
20421;SDS011;10370;53.102;18.034;2022-09-30T17:32:39;107.00;;;56.53;;
20421;SDS011;10370;53.102;18.034;2022-09-30T17:38:04;148.68;;;75.68;;
20421;SDS011;10370;53.102;18.034;2022-09-30T17:43:29;172.80;;;89.30;;
20421;SDS011;10370;53.102;18.034;2022-09-30T17:48:53;116.00;;;59.83;;
20421;SDS011;10370;53.102;18.034;2022-09-30T17:54:15;122.90;;;61.88;;
20421;SDS011;10370;53.102;18.034;2022-09-30T17:59:36;122.78;;;64.88;;
20421;SDS011;10370;53.102;18.034;2022-09-30T18:04:57;145.75;;;66.03;;
20421;SDS011;10370;53.102;18.034;2022-09-30T18:10:19;157.70;;;77.00;;
20421;SDS011;10370;53.102;18.034;2022-09-30T18:15:40;173.43;;;84.82;;
20421;SDS011;10370;53.102;18.034;2022-09-30T18:21:01;190.90;;;91.93;;
20421;SDS011;10370;53.102;18.034;2022-09-30T18:26:22;195.55;;;98.03;;
20421;SDS011;10370;53.102;18.034;2022-09-30T18:31:44;208.52;;;100.47;;
20421;SDS011;10370;53.102;18.034;2022-09-30T18:37:05;212.25;;;102.53;;
20421;SDS011;10370;53.102;18.034;2022-09-30T18:42:26;203.65;;;96.57;;
20421;SDS011;10370;53.102;18.034;2022-09-30T18:47:52;183.18;;;87.47;;
20421;SDS011;10370;53.102;18.034;2022-09-30T18:53:14;189.90;;;86.82;;
20421;SDS011;10370;53.102;18.034;2022-09-30T18:58:35;184.35;;;89.13;;
20421;SDS011;10370;53.102;18.034;2022-09-30T19:03:57;189.20;;;94.25;;
20421;SDS011;10370;53.102;18.034;2022-09-30T19:09:18;190.85;;;94.70;;
20421;SDS011;10370;53.102;18.034;2022-09-30T19:14:40;198.32;;;92.57;;
20421;SDS011;10370;53.102;18.034;2022-09-30T19:20:05;170.35;;;82.78;;
20421;SDS011;10370;53.102;18.034;2022-09-30T19:25:27;183.07;;;86.85;;
20421;SDS011;10370;53.102;18.034;2022-09-30T19:30:48;157.23;;;78.63;;
20421;SDS011;10370;53.102;18.034;2022-09-30T19:36:09;139.02;;;69.85;;
20421;SDS011;10370;53.102;18.034;2022-09-30T19:41:34;133.50;;;66.00;;
20421;SDS011;10370;53.102;18.034;2022-09-30T19:46:56;138.73;;;66.07;;
20421;SDS011;10370;53.102;18.034;2022-09-30T19:52:17;139.52;;;68.38;;
20421;SDS011;10370;53.102;18.034;2022-09-30T19:57:41;138.75;;;68.82;;
20421;SDS011;10370;53.102;18.034;2022-09-30T20:03:02;125.68;;;65.63;;
20421;SDS011;10370;53.102;18.034;2022-09-30T20:08:24;122.13;;;60.67;;
20421;SDS011;10370;53.102;18.034;2022-09-30T20:13:47;115.30;;;55.47;;
20421;SDS011;10370;53.102;18.034;2022-09-30T20:19:10;108.18;;;54.33;;
20421;SDS011;10370;53.102;18.034;2022-09-30T20:24:31;112.72;;;55.13;;
20421;SDS011;10370;53.102;18.034;2022-09-30T20:29:52;110.72;;;57.22;;
20421;SDS011;10370;53.102;18.034;2022-09-30T20:35:13;112.78;;;57.40;;
20421;SDS011;10370;53.102;18.034;2022-09-30T20:40:35;102.15;;;50.85;;
20421;SDS011;10370;53.102;18.034;2022-09-30T20:45:57;95.82;;;48.10;;
20421;SDS011;10370;53.102;18.034;2022-09-30T20:51:20;92.63;;;46.65;;
20421;SDS011;10370;53.102;18.034;2022-09-30T20:56:41;87.15;;;43.50;;
20421;SDS011;10370;53.102;18.034;2022-09-30T21:02:22;84.30;;;42.53;;
20421;SDS011;10370;53.102;18.034;2022-09-30T21:07:47;81.18;;;43.03;;
20421;SDS011;10370;53.102;18.034;2022-09-30T21:13:09;93.50;;;45.17;;
20421;SDS011;10370;53.102;18.034;2022-09-30T21:18:30;87.88;;;46.47;;
20421;SDS011;10370;53.102;18.034;2022-09-30T21:23:52;85.93;;;44.70;;
20421;SDS011;10370;53.102;18.034;2022-09-30T21:29:17;95.88;;;49.75;;
20421;SDS011;10370;53.102;18.034;2022-09-30T21:34:41;103.80;;;52.75;;
20421;SDS011;10370;53.102;18.034;2022-09-30T21:40:02;104.88;;;52.10;;
20421;SDS011;10370;53.102;18.034;2022-09-30T21:45:24;103.63;;;52.38;;
20421;SDS011;10370;53.102;18.034;2022-09-30T21:50:44;108.13;;;52.47;;
20421;SDS011;10370;53.102;18.034;2022-09-30T21:56:06;108.22;;;55.25;;
20421;SDS011;10370;53.102;18.034;2022-09-30T22:01:31;107.20;;;54.70;;
20421;SDS011;10370;53.102;18.034;2022-09-30T22:06:52;95.57;;;49.47;;
20421;SDS011;10370;53.102;18.034;2022-09-30T22:12:13;87.38;;;46.30;;
20421;SDS011;10370;53.102;18.034;2022-09-30T22:17:34;99.22;;;48.95;;
20421;SDS011;10370;53.102;18.034;2022-09-30T22:22:55;97.63;;;52.13;;
20421;SDS011;10370;53.102;18.034;2022-09-30T22:28:17;87.30;;;45.72;;
20421;SDS011;10370;53.102;18.034;2022-09-30T22:33:38;89.40;;;44.17;;
20421;SDS011;10370;53.102;18.034;2022-09-30T22:39:18;85.40;;;46.28;;
20421;SDS011;10370;53.102;18.034;2022-09-30T22:44:40;76.30;;;41.72;;
20421;SDS011;10370;53.102;18.034;2022-09-30T22:50:02;73.07;;;38.88;;
20421;SDS011;10370;53.102;18.034;2022-09-30T22:55:22;72.15;;;39.42;;
20421;SDS011;10370;53.102;18.034;2022-09-30T23:00:52;80.40;;;41.05;;
20421;SDS011;10370;53.102;18.034;2022-09-30T23:06:14;81.45;;;42.35;;
20421;SDS011;10370;53.102;18.034;2022-09-30T23:11:35;83.95;;;44.50;;
20421;SDS011;10370;53.102;18.034;2022-09-30T23:16:56;77.60;;;41.45;;
20421;SDS011;10370;53.102;18.034;2022-09-30T23:22:17;83.85;;;43.60;;
20421;SDS011;10370;53.102;18.034;2022-09-30T23:27:38;82.70;;;42.33;;
20421;SDS011;10370;53.102;18.034;2022-09-30T23:32:59;70.68;;;38.92;;
20421;SDS011;10370;53.102;18.034;2022-09-30T23:38:23;75.95;;;40.17;;
20421;SDS011;10370;53.102;18.034;2022-09-30T23:43:45;80.15;;;41.60;;
20421;SDS011;10370;53.102;18.034;2022-09-30T23:49:07;81.97;;;42.78;;
20421;SDS011;10370;53.102;18.034;2022-09-30T23:54:27;82.10;;;44.42;;
20421;SDS011;10370;53.102;18.034;2022-09-30T23:59:48;88.68;;;45.33;;
